sensor_id;sensor_type;location;lat;lon;timestamp;temperature;humidity
22838;DHT22;11585;51.450;-0.240;2023-09-18T00:00:14;20.40;99.90
22838;DHT22;11585;51.450;-0.240;2023-09-18T00:02:39;20.40;99.90
22838;DHT22;11585;51.450;-0.240;2023-09-18T00:05:05;20.40;99.90
22838;DHT22;11585;51.450;-0.240;2023-09-18T00:07:31;20.30;99.90
22838;DHT22;11585;51.450;-0.240;2023-09-18T00:09:56;20.30;99.90
22838;DHT22;11585;51.450;-0.240;2023-09-18T00:12:22;20.30;99.90
22838;DHT22;11585;51.450;-0.240;2023-09-18T00:14:48;20.20;99.90
22838;DHT22;11585;51.450;-0.240;2023-09-18T00:17:13;20.20;99.90
22838;DHT22;11585;51.450;-0.240;2023-09-18T00:25:53;20.10;99.90
22838;DHT22;11585;51.450;-0.240;2023-09-18T00:34:40;20.40;99.90
22838;DHT22;11585;51.450;-0.240;2023-09-18T00:40:11;19.90;99.90
22838;DHT22;11585;51.450;-0.240;2023-09-18T00:45:34;19.90;99.90
22838;DHT22;11585;51.450;-0.240;2023-09-18T00:48:00;19.90;99.90
22838;DHT22;11585;51.450;-0.240;2023-09-18T00:53:16;19.80;99.90
22838;DHT22;11585;51.450;-0.240;2023-09-18T00:55:42;19.80;99.90
22838;DHT22;11585;51.450;-0.240;2023-09-18T00:58:08;19.80;99.90
22838;DHT22;11585;51.450;-0.240;2023-09-18T01:03:37;19.70;99.90
22838;DHT22;11585;51.450;-0.240;2023-09-18T01:06:02;19.70;99.90
22838;DHT22;11585;51.450;-0.240;2023-09-18T01:08:28;19.70;99.90
22838;DHT22;11585;51.450;-0.240;2023-09-18T01:16:39;19.70;99.90
22838;DHT22;11585;51.450;-0.240;2023-09-18T01:19:09;19.70;99.90
22838;DHT22;11585;51.450;-0.240;2023-09-18T01:21:36;19.70;99.90
22838;DHT22;11585;51.450;-0.240;2023-09-18T01:24:02;19.70;99.90
22838;DHT22;11585;51.450;-0.240;2023-09-18T01:26:28;19.70;99.90
22838;DHT22;11585;51.450;-0.240;2023-09-18T01:28:53;19.60;99.90
22838;DHT22;11585;51.450;-0.240;2023-09-18T01:31:21;19.60;99.90
22838;DHT22;11585;51.450;-0.240;2023-09-18T01:33:47;19.70;99.90
22838;DHT22;11585;51.450;-0.240;2023-09-18T01:36:13;19.60;99.90
22838;DHT22;11585;51.450;-0.240;2023-09-18T01:38:39;19.60;99.90
22838;DHT22;11585;51.450;-0.240;2023-09-18T01:43:54;19.60;99.90
22838;DHT22;11585;51.450;-0.240;2023-09-18T01:46:20;19.60;99.90
22838;DHT22;11585;51.450;-0.240;2023-09-18T01:48:46;19.60;99.90
22838;DHT22;11585;51.450;-0.240;2023-09-18T01:51:17;19.60;99.90
22838;DHT22;11585;51.450;-0.240;2023-09-18T01:53:43;19.60;99.90
22838;DHT22;11585;51.450;-0.240;2023-09-18T01:56:09;19.60;99.90
22838;DHT22;11585;51.450;-0.240;2023-09-18T01:58:34;19.60;99.90
22838;DHT22;11585;51.450;-0.240;2023-09-18T02:01:03;19.60;99.90
22838;DHT22;11585;51.450;-0.240;2023-09-18T02:03:29;19.60;99.90
22838;DHT22;11585;51.450;-0.240;2023-09-18T02:05:55;19.50;99.90
22838;DHT22;11585;51.450;-0.240;2023-09-18T02:08:20;19.50;99.90
22838;DHT22;11585;51.450;-0.240;2023-09-18T02:13:16;19.50;99.90
22838;DHT22;11585;51.450;-0.240;2023-09-18T02:15:43;19.50;99.90
22838;DHT22;11585;51.450;-0.240;2023-09-18T02:18:08;19.50;99.90
22838;DHT22;11585;51.450;-0.240;2023-09-18T02:20:42;19.50;99.90
22838;DHT22;11585;51.450;-0.240;2023-09-18T02:23:09;19.50;99.90
22838;DHT22;11585;51.450;-0.240;2023-09-18T02:25:35;19.50;99.90
22838;DHT22;11585;51.450;-0.240;2023-09-18T02:28:00;19.50;99.90
22838;DHT22;11585;51.450;-0.240;2023-09-18T02:33:12;19.50;99.90
22838;DHT22;11585;51.450;-0.240;2023-09-18T02:35:37;19.50;99.90
22838;DHT22;11585;51.450;-0.240;2023-09-18T02:38:03;19.40;99.90
22838;DHT22;11585;51.450;-0.240;2023-09-18T02:40:31;19.50;99.90
22838;DHT22;11585;51.450;-0.240;2023-09-18T02:42:56;19.40;99.90
22838;DHT22;11585;51.450;-0.240;2023-09-18T02:45:22;19.50;99.90
22838;DHT22;11585;51.450;-0.240;2023-09-18T02:47:47;19.50;99.90
22838;DHT22;11585;51.450;-0.240;2023-09-18T02:50:14;19.40;99.90
22838;DHT22;11585;51.450;-0.240;2023-09-18T02:52:39;19.40;99.90
22838;DHT22;11585;51.450;-0.240;2023-09-18T02:55:05;19.40;99.90
22838;DHT22;11585;51.450;-0.240;2023-09-18T02:57:30;19.40;99.90
22838;DHT22;11585;51.450;-0.240;2023-09-18T03:08:29;19.40;99.90
22838;DHT22;11585;51.450;-0.240;2023-09-18T03:14:01;19.40;99.90
22838;DHT22;11585;51.450;-0.240;2023-09-18T03:16:27;19.30;99.90
22838;DHT22;11585;51.450;-0.240;2023-09-18T03:18:53;19.30;99.90
22838;DHT22;11585;51.450;-0.240;2023-09-18T03:21:21;19.30;99.90
22838;DHT22;11585;51.450;-0.240;2023-09-18T03:23:46;19.30;99.90
22838;DHT22;11585;51.450;-0.240;2023-09-18T03:26:12;19.30;99.90
22838;DHT22;11585;51.450;-0.240;2023-09-18T03:28:37;19.30;99.90
22838;DHT22;11585;51.450;-0.240;2023-09-18T03:33:51;19.30;99.90
22838;DHT22;11585;51.450;-0.240;2023-09-18T03:36:17;19.30;99.90
22838;DHT22;11585;51.450;-0.240;2023-09-18T03:38:42;19.30;99.90
22838;DHT22;11585;51.450;-0.240;2023-09-18T03:44:11;19.20;99.90
22838;DHT22;11585;51.450;-0.240;2023-09-18T03:49:40;19.20;99.90
22838;DHT22;11585;51.450;-0.240;2023-09-18T03:54:52;19.20;99.90
22838;DHT22;11585;51.450;-0.240;2023-09-18T03:57:17;19.20;99.90
22838;DHT22;11585;51.450;-0.240;2023-09-18T03:59:43;19.10;99.90
22838;DHT22;11585;51.450;-0.240;2023-09-18T04:04:53;19.20;99.90
22838;DHT22;11585;51.450;-0.240;2023-09-18T04:07:19;19.10;99.90
22838;DHT22;11585;51.450;-0.240;2023-09-18T04:09:45;19.10;99.90
22838;DHT22;11585;51.450;-0.240;2023-09-18T04:15:14;19.10;99.90
22838;DHT22;11585;51.450;-0.240;2023-09-18T04:17:40;19.10;99.90
22838;DHT22;11585;51.450;-0.240;2023-09-18T04:20:08;19.10;99.90
22838;DHT22;11585;51.450;-0.240;2023-09-18T04:22:34;19.10;99.90
22838;DHT22;11585;51.450;-0.240;2023-09-18T04:24:59;19.10;99.90
22838;DHT22;11585;51.450;-0.240;2023-09-18T04:27:25;19.10;99.90
22838;DHT22;11585;51.450;-0.240;2023-09-18T04:29:50;19.00;99.90
22838;DHT22;11585;51.450;-0.240;2023-09-18T04:32:16;19.10;99.90
22838;DHT22;11585;51.450;-0.240;2023-09-18T04:34:41;19.10;99.90
22838;DHT22;11585;51.450;-0.240;2023-09-18T04:37:07;19.10;99.90
22838;DHT22;11585;51.450;-0.240;2023-09-18T04:39:33;19.10;99.90
22838;DHT22;11585;51.450;-0.240;2023-09-18T04:44:45;19.10;99.90
22838;DHT22;11585;51.450;-0.240;2023-09-18T04:47:11;19.00;99.90
22838;DHT22;11585;51.450;-0.240;2023-09-18T04:49:36;19.00;99.90
22838;DHT22;11585;51.450;-0.240;2023-09-18T04:52:02;19.00;99.90
22838;DHT22;11585;51.450;-0.240;2023-09-18T04:54:28;19.00;99.90
22838;DHT22;11585;51.450;-0.240;2023-09-18T04:56:53;19.00;99.90
22838;DHT22;11585;51.450;-0.240;2023-09-18T04:59:19;19.00;99.90
22838;DHT22;11585;51.450;-0.240;2023-09-18T05:04:48;19.00;99.90
22838;DHT22;11585;51.450;-0.240;2023-09-18T05:07:13;19.00;99.90
22838;DHT22;11585;51.450;-0.240;2023-09-18T05:09:39;19.00;99.90
22838;DHT22;11585;51.450;-0.240;2023-09-18T05:15:08;19.00;99.90
22838;DHT22;11585;51.450;-0.240;2023-09-18T05:17:46;19.00;99.90
22838;DHT22;11585;51.450;-0.240;2023-09-18T05:23:16;19.00;99.90
22838;DHT22;11585;51.450;-0.240;2023-09-18T05:25:42;19.00;99.90
22838;DHT22;11585;51.450;-0.240;2023-09-18T05:28:09;19.00;99.90
22838;DHT22;11585;51.450;-0.240;2023-09-18T05:33:06;19.00;99.90
22838;DHT22;11585;51.450;-0.240;2023-09-18T05:35:42;19.00;99.90
22838;DHT22;11585;51.450;-0.240;2023-09-18T05:38:08;19.00;99.90
22838;DHT22;11585;51.450;-0.240;2023-09-18T05:43:38;19.00;99.90
22838;DHT22;11585;51.450;-0.240;2023-09-18T05:46:03;19.10;99.90
22838;DHT22;11585;51.450;-0.240;2023-09-18T05:48:29;19.00;99.90
22838;DHT22;11585;51.450;-0.240;2023-09-18T05:53:57;19.00;99.90
22838;DHT22;11585;51.450;-0.240;2023-09-18T05:56:23;18.90;99.90
22838;DHT22;11585;51.450;-0.240;2023-09-18T05:58:52;19.00;99.90
22838;DHT22;11585;51.450;-0.240;2023-09-18T06:07:05;19.00;99.90
22838;DHT22;11585;51.450;-0.240;2023-09-18T06:09:31;19.00;99.90
22838;DHT22;11585;51.450;-0.240;2023-09-18T06:14:59;19.00;99.90
22838;DHT22;11585;51.450;-0.240;2023-09-18T06:17:26;19.00;99.90
22838;DHT22;11585;51.450;-0.240;2023-09-18T06:19:51;19.00;99.90
22838;DHT22;11585;51.450;-0.240;2023-09-18T06:22:17;19.00;99.90
22838;DHT22;11585;51.450;-0.240;2023-09-18T06:24:43;19.00;99.90
22838;DHT22;11585;51.450;-0.240;2023-09-18T06:27:08;19.00;99.90
22838;DHT22;11585;51.450;-0.240;2023-09-18T06:29:34;19.00;99.90
22838;DHT22;11585;51.450;-0.240;2023-09-18T06:37:37;18.90;99.90
22838;DHT22;11585;51.450;-0.240;2023-09-18T06:40:05;19.00;99.90
22838;DHT22;11585;51.450;-0.240;2023-09-18T06:42:31;19.00;99.90
22838;DHT22;11585;51.450;-0.240;2023-09-18T06:44:57;19.00;99.90
22838;DHT22;11585;51.450;-0.240;2023-09-18T06:47:23;19.00;99.90
22838;DHT22;11585;51.450;-0.240;2023-09-18T06:49:49;19.00;99.90
22838;DHT22;11585;51.450;-0.240;2023-09-18T06:52:15;19.00;99.90
22838;DHT22;11585;51.450;-0.240;2023-09-18T06:54:42;18.90;99.90
22838;DHT22;11585;51.450;-0.240;2023-09-18T06:57:09;19.00;99.90
22838;DHT22;11585;51.450;-0.240;2023-09-18T06:59:35;19.00;99.90
22838;DHT22;11585;51.450;-0.240;2023-09-18T07:05:04;19.00;99.90
22838;DHT22;11585;51.450;-0.240;2023-09-18T07:07:30;18.90;99.90
22838;DHT22;11585;51.450;-0.240;2023-09-18T07:13:00;18.00;99.90
22838;DHT22;11585;51.450;-0.240;2023-09-18T07:15:27;18.90;99.90
22838;DHT22;11585;51.450;-0.240;2023-09-18T07:17:52;19.00;99.90
22838;DHT22;11585;51.450;-0.240;2023-09-18T07:23:04;18.90;99.90
22838;DHT22;11585;51.450;-0.240;2023-09-18T07:25:30;18.90;99.90
22838;DHT22;11585;51.450;-0.240;2023-09-18T07:27:55;18.90;99.90
22838;DHT22;11585;51.450;-0.240;2023-09-18T07:33:23;19.00;99.90
22838;DHT22;11585;51.450;-0.240;2023-09-18T07:35:49;18.90;99.90
22838;DHT22;11585;51.450;-0.240;2023-09-18T07:38:17;19.00;99.90
22838;DHT22;11585;51.450;-0.240;2023-09-18T07:43:30;19.00;99.90
22838;DHT22;11585;51.450;-0.240;2023-09-18T07:45:56;19.00;99.90
22838;DHT22;11585;51.450;-0.240;2023-09-18T07:48:22;19.00;99.90
22838;DHT22;11585;51.450;-0.240;2023-09-18T07:50:48;19.00;99.90
22838;DHT22;11585;51.450;-0.240;2023-09-18T07:53:14;19.00;99.90
22838;DHT22;11585;51.450;-0.240;2023-09-18T07:55:40;19.00;99.90
22838;DHT22;11585;51.450;-0.240;2023-09-18T07:58:06;19.00;99.90
22838;DHT22;11585;51.450;-0.240;2023-09-18T08:03:34;19.00;99.90
22838;DHT22;11585;51.450;-0.240;2023-09-18T08:06:00;19.00;99.90
22838;DHT22;11585;51.450;-0.240;2023-09-18T08:08:25;19.00;99.90
22838;DHT22;11585;51.450;-0.240;2023-09-18T08:13:54;19.00;99.90
22838;DHT22;11585;51.450;-0.240;2023-09-18T08:16:20;19.00;99.90
22838;DHT22;11585;51.450;-0.240;2023-09-18T08:18:45;19.00;99.90
22838;DHT22;11585;51.450;-0.240;2023-09-18T08:24:14;19.00;99.90
22838;DHT22;11585;51.450;-0.240;2023-09-18T08:29:43;19.00;99.90
22838;DHT22;11585;51.450;-0.240;2023-09-18T08:35:13;19.10;99.90
22838;DHT22;11585;51.450;-0.240;2023-09-18T08:37:41;19.10;99.90
22838;DHT22;11585;51.450;-0.240;2023-09-18T08:43:10;19.00;99.90
22838;DHT22;11585;51.450;-0.240;2023-09-18T08:48:39;19.10;99.90
22838;DHT22;11585;51.450;-0.240;2023-09-18T08:54:09;19.10;99.90
22838;DHT22;11585;51.450;-0.240;2023-09-18T08:56:35;19.10;99.90
22838;DHT22;11585;51.450;-0.240;2023-09-18T08:59:00;19.10;99.90
22838;DHT22;11585;51.450;-0.240;2023-09-18T09:04:29;19.10;99.90
22838;DHT22;11585;51.450;-0.240;2023-09-18T09:06:55;19.20;99.90
22838;DHT22;11585;51.450;-0.240;2023-09-18T09:09:24;19.20;99.90
22838;DHT22;11585;51.450;-0.240;2023-09-18T09:15:01;19.10;99.90
22838;DHT22;11585;51.450;-0.240;2023-09-18T09:17:27;19.10;99.90
22838;DHT22;11585;51.450;-0.240;2023-09-18T09:19:57;19.10;99.90
22838;DHT22;11585;51.450;-0.240;2023-09-18T09:22:32;19.20;99.90
22838;DHT22;11585;51.450;-0.240;2023-09-18T09:24:59;19.20;99.90
22838;DHT22;11585;51.450;-0.240;2023-09-18T09:27:24;19.20;99.90
22838;DHT22;11585;51.450;-0.240;2023-09-18T09:29:59;19.20;99.90
22838;DHT22;11585;51.450;-0.240;2023-09-18T09:32:26;19.20;99.90
22838;DHT22;11585;51.450;-0.240;2023-09-18T09:34:57;19.20;99.90
22838;DHT22;11585;51.450;-0.240;2023-09-18T09:37:31;19.20;99.90
22838;DHT22;11585;51.450;-0.240;2023-09-18T09:42:43;19.30;99.90
22838;DHT22;11585;51.450;-0.240;2023-09-18T09:45:13;19.30;99.90
22838;DHT22;11585;51.450;-0.240;2023-09-18T09:47:39;19.30;99.90
22838;DHT22;11585;51.450;-0.240;2023-09-18T09:50:07;19.30;99.90
22838;DHT22;11585;51.450;-0.240;2023-09-18T09:52:35;19.30;99.90
22838;DHT22;11585;51.450;-0.240;2023-09-18T09:55:01;19.30;99.90
22838;DHT22;11585;51.450;-0.240;2023-09-18T09:57:29;19.40;99.90
22838;DHT22;11585;51.450;-0.240;2023-09-18T10:00:02;19.40;99.90
22838;DHT22;11585;51.450;-0.240;2023-09-18T10:02:32;19.40;99.90
22838;DHT22;11585;51.450;-0.240;2023-09-18T10:04:59;19.40;99.90
22838;DHT22;11585;51.450;-0.240;2023-09-18T10:07:25;19.40;99.90
22838;DHT22;11585;51.450;-0.240;2023-09-18T10:09:51;19.40;99.90
22838;DHT22;11585;51.450;-0.240;2023-09-18T10:12:17;19.40;99.90
22838;DHT22;11585;51.450;-0.240;2023-09-18T10:14:46;19.50;99.90
22838;DHT22;11585;51.450;-0.240;2023-09-18T10:17:18;19.50;99.90
22838;DHT22;11585;51.450;-0.240;2023-09-18T10:22:50;19.50;99.90
22838;DHT22;11585;51.450;-0.240;2023-09-18T10:25:19;19.50;99.90
22838;DHT22;11585;51.450;-0.240;2023-09-18T10:27:47;19.50;99.90
22838;DHT22;11585;51.450;-0.240;2023-09-18T10:30:19;19.50;99.90
22838;DHT22;11585;51.450;-0.240;2023-09-18T10:32:45;19.50;99.90
22838;DHT22;11585;51.450;-0.240;2023-09-18T10:35:11;19.50;99.90
22838;DHT22;11585;51.450;-0.240;2023-09-18T10:37:37;19.50;99.90
22838;DHT22;11585;51.450;-0.240;2023-09-18T10:42:34;19.50;99.90
22838;DHT22;11585;51.450;-0.240;2023-09-18T10:45:00;19.50;99.90
22838;DHT22;11585;51.450;-0.240;2023-09-18T10:47:27;19.50;99.90
22838;DHT22;11585;51.450;-0.240;2023-09-18T10:52:43;19.50;99.90
22838;DHT22;11585;51.450;-0.240;2023-09-18T10:55:13;19.50;99.90
22838;DHT22;11585;51.450;-0.240;2023-09-18T10:57:49;19.50;99.90
22838;DHT22;11585;51.450;-0.240;2023-09-18T11:00:15;19.50;99.90
22838;DHT22;11585;51.450;-0.240;2023-09-18T11:02:42;19.50;99.90
22838;DHT22;11585;51.450;-0.240;2023-09-18T11:05:07;19.50;99.90
22838;DHT22;11585;51.450;-0.240;2023-09-18T11:07:33;19.50;99.90
22838;DHT22;11585;51.450;-0.240;2023-09-18T11:13:05;19.60;99.90
22838;DHT22;11585;51.450;-0.240;2023-09-18T11:15:32;19.60;99.90
22838;DHT22;11585;51.450;-0.240;2023-09-18T11:17:59;19.60;99.90
22838;DHT22;11585;51.450;-0.240;2023-09-18T11:23:38;19.60;99.90
22838;DHT22;11585;51.450;-0.240;2023-09-18T11:26:08;19.60;99.90
22838;DHT22;11585;51.450;-0.240;2023-09-18T11:28:34;19.70;99.90
22838;DHT22;11585;51.450;-0.240;2023-09-18T11:36:01;19.70;99.90
22838;DHT22;11585;51.450;-0.240;2023-09-18T11:38:28;19.70;99.90
22838;DHT22;11585;51.450;-0.240;2023-09-18T11:46:50;19.70;99.90
22838;DHT22;11585;51.450;-0.240;2023-09-18T11:49:23;19.70;99.90
22838;DHT22;11585;51.450;-0.240;2023-09-18T11:54:22;19.70;99.90
22838;DHT22;11585;51.450;-0.240;2023-09-18T11:56:48;19.70;99.90
22838;DHT22;11585;51.450;-0.240;2023-09-18T11:59:13;19.70;99.90
22838;DHT22;11585;51.450;-0.240;2023-09-18T12:01:41;19.70;99.90
22838;DHT22;11585;51.450;-0.240;2023-09-18T12:04:11;19.70;99.90
22838;DHT22;11585;51.450;-0.240;2023-09-18T12:06:41;19.70;99.90
22838;DHT22;11585;51.450;-0.240;2023-09-18T12:09:06;19.60;99.90
22838;DHT22;11585;51.450;-0.240;2023-09-18T12:11:33;19.60;99.90
22838;DHT22;11585;51.450;-0.240;2023-09-18T12:14:03;19.60;99.90
22838;DHT22;11585;51.450;-0.240;2023-09-18T12:16:29;19.70;99.90
22838;DHT22;11585;51.450;-0.240;2023-09-18T12:18:55;19.70;99.90
22838;DHT22;11585;51.450;-0.240;2023-09-18T12:21:22;19.70;99.90
22838;DHT22;11585;51.450;-0.240;2023-09-18T12:23:47;19.70;99.90
22838;DHT22;11585;51.450;-0.240;2023-09-18T12:26:14;19.60;99.90
22838;DHT22;11585;51.450;-0.240;2023-09-18T12:28:40;19.60;99.90
22838;DHT22;11585;51.450;-0.240;2023-09-18T12:33:35;19.60;99.90
22838;DHT22;11585;51.450;-0.240;2023-09-18T12:36:02;19.60;99.90
22838;DHT22;11585;51.450;-0.240;2023-09-18T12:38:28;19.60;99.90
22838;DHT22;11585;51.450;-0.240;2023-09-18T12:43:57;19.60;99.90
22838;DHT22;11585;51.450;-0.240;2023-09-18T12:46:23;19.60;99.90
22838;DHT22;11585;51.450;-0.240;2023-09-18T12:48:48;19.60;99.90
22838;DHT22;11585;51.450;-0.240;2023-09-18T12:54:02;19.60;99.90
22838;DHT22;11585;51.450;-0.240;2023-09-18T12:56:31;19.60;99.90
22838;DHT22;11585;51.450;-0.240;2023-09-18T12:59:00;19.60;99.90
22838;DHT22;11585;51.450;-0.240;2023-09-18T13:01:28;19.60;99.90
22838;DHT22;11585;51.450;-0.240;2023-09-18T13:03:53;19.60;99.90
22838;DHT22;11585;51.450;-0.240;2023-09-18T13:06:20;19.60;99.90
22838;DHT22;11585;51.450;-0.240;2023-09-18T13:08:46;19.60;99.90
22838;DHT22;11585;51.450;-0.240;2023-09-18T13:11:12;19.60;99.90
22838;DHT22;11585;51.450;-0.240;2023-09-18T13:13:40;19.60;99.90
22838;DHT22;11585;51.450;-0.240;2023-09-18T13:16:06;19.60;99.90
22838;DHT22;11585;51.450;-0.240;2023-09-18T13:18:34;19.60;99.90
22838;DHT22;11585;51.450;-0.240;2023-09-18T13:21:23;19.60;99.90
22838;DHT22;11585;51.450;-0.240;2023-09-18T13:23:47;19.60;99.90
22838;DHT22;11585;51.450;-0.240;2023-09-18T13:26:16;19.60;99.90
22838;DHT22;11585;51.450;-0.240;2023-09-18T13:28:44;20.20;99.90
22838;DHT22;11585;51.450;-0.240;2023-09-18T13:34:16;19.80;99.90
22838;DHT22;11585;51.450;-0.240;2023-09-18T13:36:45;19.50;99.90
22838;DHT22;11585;51.450;-0.240;2023-09-18T13:39:11;19.50;99.90
22838;DHT22;11585;51.450;-0.240;2023-09-18T13:41:39;19.40;99.90
22838;DHT22;11585;51.450;-0.240;2023-09-18T13:44:04;19.40;99.90
22838;DHT22;11585;51.450;-0.240;2023-09-18T13:46:30;19.40;99.90
22838;DHT22;11585;51.450;-0.240;2023-09-18T13:48:55;19.40;99.90
22838;DHT22;11585;51.450;-0.240;2023-09-18T13:51:21;19.30;99.90
22838;DHT22;11585;51.450;-0.240;2023-09-18T13:53:47;19.30;99.90
22838;DHT22;11585;51.450;-0.240;2023-09-18T13:56:13;19.30;99.90
22838;DHT22;11585;51.450;-0.240;2023-09-18T13:58:39;19.30;99.90
22838;DHT22;11585;51.450;-0.240;2023-09-18T14:01:06;19.20;99.90
22838;DHT22;11585;51.450;-0.240;2023-09-18T14:03:33;19.20;99.90
22838;DHT22;11585;51.450;-0.240;2023-09-18T14:05:58;19.20;99.90
22838;DHT22;11585;51.450;-0.240;2023-09-18T14:08:24;19.10;99.90
22838;DHT22;11585;51.450;-0.240;2023-09-18T14:13:35;19.10;99.90
22838;DHT22;11585;51.450;-0.240;2023-09-18T14:16:00;19.10;99.90
22838;DHT22;11585;51.450;-0.240;2023-09-18T14:18:29;19.10;99.90
22838;DHT22;11585;51.450;-0.240;2023-09-18T14:23:39;19.00;99.90
22838;DHT22;11585;51.450;-0.240;2023-09-18T14:26:05;19.00;99.90
22838;DHT22;11585;51.450;-0.240;2023-09-18T14:28:31;18.90;99.90
22838;DHT22;11585;51.450;-0.240;2023-09-18T14:30:59;18.90;99.90
22838;DHT22;11585;51.450;-0.240;2023-09-18T14:33:27;18.90;99.90
22838;DHT22;11585;51.450;-0.240;2023-09-18T14:35:53;18.90;99.90
22838;DHT22;11585;51.450;-0.240;2023-09-18T14:38:19;18.90;99.90
22838;DHT22;11585;51.450;-0.240;2023-09-18T14:40:45;18.90;99.90
22838;DHT22;11585;51.450;-0.240;2023-09-18T14:43:12;18.90;99.90
22838;DHT22;11585;51.450;-0.240;2023-09-18T14:45:37;18.90;99.90
22838;DHT22;11585;51.450;-0.240;2023-09-18T14:48:03;18.90;99.90
22838;DHT22;11585;51.450;-0.240;2023-09-18T14:50:29;18.90;99.90
22838;DHT22;11585;51.450;-0.240;2023-09-18T14:52:55;18.90;99.90
22838;DHT22;11585;51.450;-0.240;2023-09-18T14:55:20;18.90;99.90
22838;DHT22;11585;51.450;-0.240;2023-09-18T14:57:46;18.90;99.90
22838;DHT22;11585;51.450;-0.240;2023-09-18T15:03:14;18.90;99.90
22838;DHT22;11585;51.450;-0.240;2023-09-18T15:05:40;18.90;99.90
22838;DHT22;11585;51.450;-0.240;2023-09-18T15:08:06;18.90;99.90
22838;DHT22;11585;51.450;-0.240;2023-09-18T15:10:33;18.90;99.90
22838;DHT22;11585;51.450;-0.240;2023-09-18T15:12:59;18.90;99.90
22838;DHT22;11585;51.450;-0.240;2023-09-18T15:15:24;18.90;99.90
22838;DHT22;11585;51.450;-0.240;2023-09-18T15:17:50;18.90;99.90
22838;DHT22;11585;51.450;-0.240;2023-09-18T15:23:05;18.90;99.90
22838;DHT22;11585;51.450;-0.240;2023-09-18T15:25:33;19.00;99.90
22838;DHT22;11585;51.450;-0.240;2023-09-18T15:28:06;18.90;99.90
22838;DHT22;11585;51.450;-0.240;2023-09-18T15:30:34;19.00;99.90
22838;DHT22;11585;51.450;-0.240;2023-09-18T15:33:01;19.00;99.90
22838;DHT22;11585;51.450;-0.240;2023-09-18T15:35:27;19.00;99.90
22838;DHT22;11585;51.450;-0.240;2023-09-18T15:37:52;19.00;99.90
22838;DHT22;11585;51.450;-0.240;2023-09-18T15:40:20;19.00;99.90
22838;DHT22;11585;51.450;-0.240;2023-09-18T15:42:51;19.00;99.90
22838;DHT22;11585;51.450;-0.240;2023-09-18T15:45:17;19.00;99.90
22838;DHT22;11585;51.450;-0.240;2023-09-18T15:47:43;19.00;99.90
22838;DHT22;11585;51.450;-0.240;2023-09-18T15:52:55;19.00;99.90
22838;DHT22;11585;51.450;-0.240;2023-09-18T15:55:20;19.00;99.90
22838;DHT22;11585;51.450;-0.240;2023-09-18T15:57:46;19.00;99.90
22838;DHT22;11585;51.450;-0.240;2023-09-18T16:00:14;19.00;99.90
22838;DHT22;11585;51.450;-0.240;2023-09-18T16:02:43;19.00;99.90
22838;DHT22;11585;51.450;-0.240;2023-09-18T16:05:08;19.00;99.90
22838;DHT22;11585;51.450;-0.240;2023-09-18T16:07:34;19.10;99.90
22838;DHT22;11585;51.450;-0.240;2023-09-18T16:12:54;19.00;99.90
22838;DHT22;11585;51.450;-0.240;2023-09-18T16:15:20;19.00;99.90
22838;DHT22;11585;51.450;-0.240;2023-09-18T16:17:45;19.00;99.90
22838;DHT22;11585;51.450;-0.240;2023-09-18T16:20:11;19.00;99.90
22838;DHT22;11585;51.450;-0.240;2023-09-18T16:22:36;19.00;99.90
22838;DHT22;11585;51.450;-0.240;2023-09-18T16:25:02;19.00;99.90
22838;DHT22;11585;51.450;-0.240;2023-09-18T16:27:28;19.00;99.90
22838;DHT22;11585;51.450;-0.240;2023-09-18T16:29:55;19.00;99.90
22838;DHT22;11585;51.450;-0.240;2023-09-18T16:32:20;19.00;99.90
22838;DHT22;11585;51.450;-0.240;2023-09-18T16:34:46;19.00;99.90
22838;DHT22;11585;51.450;-0.240;2023-09-18T16:37:12;19.00;99.90
22838;DHT22;11585;51.450;-0.240;2023-09-18T16:39:37;19.00;99.90
22838;DHT22;11585;51.450;-0.240;2023-09-18T16:45:06;19.00;99.90
22838;DHT22;11585;51.450;-0.240;2023-09-18T16:47:32;19.00;99.90
22838;DHT22;11585;51.450;-0.240;2023-09-18T16:52:30;18.90;99.90
22838;DHT22;11585;51.450;-0.240;2023-09-18T16:54:56;18.90;99.90
22838;DHT22;11585;51.450;-0.240;2023-09-18T16:57:24;18.90;99.90
22838;DHT22;11585;51.450;-0.240;2023-09-18T16:59:50;18.90;99.90
22838;DHT22;11585;51.450;-0.240;2023-09-18T17:02:18;18.90;99.90
22838;DHT22;11585;51.450;-0.240;2023-09-18T17:04:44;18.90;99.90
22838;DHT22;11585;51.450;-0.240;2023-09-18T17:07:10;18.90;99.90
22838;DHT22;11585;51.450;-0.240;2023-09-18T17:09:38;18.90;99.90
22838;DHT22;11585;51.450;-0.240;2023-09-18T17:15:07;18.80;99.90
22838;DHT22;11585;51.450;-0.240;2023-09-18T17:17:34;18.80;99.90
22838;DHT22;11585;51.450;-0.240;2023-09-18T17:22:47;18.80;99.90
22838;DHT22;11585;51.450;-0.240;2023-09-18T17:25:13;18.80;99.90
22838;DHT22;11585;51.450;-0.240;2023-09-18T17:27:41;18.70;99.90
22838;DHT22;11585;51.450;-0.240;2023-09-18T17:30:07;18.70;99.90
22838;DHT22;11585;51.450;-0.240;2023-09-18T17:32:33;18.60;99.90
22838;DHT22;11585;51.450;-0.240;2023-09-18T17:35:00;18.60;99.90
22838;DHT22;11585;51.450;-0.240;2023-09-18T17:37:34;18.60;99.90
22838;DHT22;11585;51.450;-0.240;2023-09-18T17:40:01;18.60;99.90
22838;DHT22;11585;51.450;-0.240;2023-09-18T17:42:30;18.50;99.90
22838;DHT22;11585;51.450;-0.240;2023-09-18T17:44:58;18.50;99.90
22838;DHT22;11585;51.450;-0.240;2023-09-18T17:47:24;18.50;99.90
22838;DHT22;11585;51.450;-0.240;2023-09-18T17:49:49;18.50;99.90
22838;DHT22;11585;51.450;-0.240;2023-09-18T17:52:15;18.40;99.90
22838;DHT22;11585;51.450;-0.240;2023-09-18T17:54:41;18.40;99.90
22838;DHT22;11585;51.450;-0.240;2023-09-18T17:57:07;18.40;99.90
22838;DHT22;11585;51.450;-0.240;2023-09-18T17:59:33;18.40;99.90
22838;DHT22;11585;51.450;-0.240;2023-09-18T18:04:30;18.30;99.90
22838;DHT22;11585;51.450;-0.240;2023-09-18T18:06:55;18.30;99.90
22838;DHT22;11585;51.450;-0.240;2023-09-18T18:09:21;18.30;99.90
22838;DHT22;11585;51.450;-0.240;2023-09-18T18:11:48;18.30;99.90
22838;DHT22;11585;51.450;-0.240;2023-09-18T18:14:14;18.30;99.90
22838;DHT22;11585;51.450;-0.240;2023-09-18T18:16:41;18.30;99.90
22838;DHT22;11585;51.450;-0.240;2023-09-18T18:19:06;18.20;99.90
22838;DHT22;11585;51.450;-0.240;2023-09-18T18:24:35;18.20;99.90
22838;DHT22;11585;51.450;-0.240;2023-09-18T18:27:00;18.20;99.90
22838;DHT22;11585;51.450;-0.240;2023-09-18T18:29:26;18.10;99.90
22838;DHT22;11585;51.450;-0.240;2023-09-18T18:34:55;18.10;99.90
22838;DHT22;11585;51.450;-0.240;2023-09-18T18:37:21;18.00;99.90
22838;DHT22;11585;51.450;-0.240;2023-09-18T18:39:46;18.00;99.90
22838;DHT22;11585;51.450;-0.240;2023-09-18T18:42:13;18.00;99.90
22838;DHT22;11585;51.450;-0.240;2023-09-18T18:44:38;18.00;99.90
22838;DHT22;11585;51.450;-0.240;2023-09-18T18:47:04;18.00;99.90
22838;DHT22;11585;51.450;-0.240;2023-09-18T18:49:29;18.00;99.90
22838;DHT22;11585;51.450;-0.240;2023-09-18T18:51:57;17.90;99.90
22838;DHT22;11585;51.450;-0.240;2023-09-18T18:54:23;17.90;99.90
22838;DHT22;11585;51.450;-0.240;2023-09-18T18:56:50;17.90;99.90